Time;durP1;ratioP1;P1;durP2;ratioP2;P2;SDS_P1;SDS_P2;PMS_P1;PMS_P2;Temp;Humidity;BMP_temperature;BMP_pressure;BME280_temperature;BME280_humidity;BME280_pressure;Samples;Min_cycle;Max_cycle;Signal;HPM_P1;HPM_P2
2021/04/18 00:01:12;;;;;;;133.65;43.90;;;;;;;3.69;98.27;99648.53;3468898;28;20111;-49
2021/04/18 00:02:54;;;;;;;129.98;38.58;;;;;;;3.69;98.02;99645.97;3465571;28;20053;-51
2021/04/18 00:04:36;;;;;;;176.48;43.50;;;;;;;3.70;98.40;99652.84;3468054;28;20087;-50
2021/04/18 00:06:17;;;;;;;133.80;39.08;;;;;;;3.70;98.48;99646.03;3466712;28;20057;-52
2021/04/18 00:08:02;;;;;;;221.00;41.42;;;;;;;3.72;98.42;99659.78;3465632;28;20115;-60
2021/04/18 00:09:44;;;;;;;216.55;41.50;;;;;;;3.74;98.44;99659.84;3469588;28;20457;-60
2021/04/18 00:11:26;;;;;;;182.73;40.58;;;;;;;3.76;98.34;99658.22;3469871;28;20048;-60
2021/04/18 00:13:09;;;;;;;196.48;41.50;;;;;;;3.78;98.22;99660.03;3472148;28;20107;-50
2021/04/18 00:14:50;;;;;;;169.98;29.95;;;;;;;3.81;98.21;99660.16;3470198;28;20056;-60
2021/04/18 00:16:32;;;;;;;168.73;36.78;;;;;;;3.85;98.35;99656.03;3469820;28;20046;-60
2021/04/18 00:18:15;;;;;;;170.57;38.25;;;;;;;3.87;98.56;99658.66;3472197;28;20503;-60
2021/04/18 00:19:56;;;;;;;132.73;37.08;;;;;;;3.89;98.70;99651.88;3469874;28;20076;-60
2021/04/18 00:21:38;;;;;;;161.77;36.35;;;;;;;3.91;98.41;99647.69;3472859;28;20049;-60
2021/04/18 00:23:20;;;;;;;159.30;36.70;;;;;;;3.93;98.77;99649.53;3469677;28;20111;-60
2021/04/18 00:25:01;;;;;;;100.82;32.42;;;;;;;3.95;98.81;99652.16;3472874;28;20392;-50
2021/04/18 00:26:43;;;;;;;123.18;35.15;;;;;;;3.96;98.68;99648.75;3470513;28;20057;-52
2021/04/18 00:28:24;;;;;;;121.78;34.38;;;;;;;3.98;98.48;99655.72;3471390;28;20049;-53
2021/04/18 00:30:09;;;;;;;124.28;33.78;;;;;;;4.01;98.52;99644.69;3471051;28;20542;-50
2021/04/18 00:31:50;;;;;;;104.65;24.77;;;;;;;4.03;98.91;99646.47;3470040;28;20180;-49
2021/04/18 00:33:32;;;;;;;126.53;31.98;;;;;;;4.08;98.70;99651.81;3473238;28;20045;-50
2021/04/18 00:35:16;;;;;;;132.57;35.43;;;;;;;4.10;98.69;99646.72;3469542;28;20107;-50
2021/04/18 00:36:58;;;;;;;149.57;33.28;;;;;;;4.11;98.83;99638.22;3471861;28;20775;-50
2021/04/18 00:38:39;;;;;;;94.97;30.45;;;;;;;4.11;98.98;99638.22;3470874;28;20427;-50
2021/04/18 00:40:22;;;;;;;104.10;30.80;;;;;;;4.12;99.07;99639.97;3470343;28;20060;-60
2021/04/18 00:42:05;;;;;;;156.93;33.03;;;;;;;4.12;98.95;99645.97;3472910;28;20152;-60
2021/04/18 00:43:46;;;;;;;141.35;34.20;;;;;;;4.13;99.11;99641.72;3468132;28;20045;-60
2021/04/18 00:45:27;;;;;;;162.43;35.20;;;;;;;4.12;98.84;99639.97;3472933;28;20056;-60
2021/04/18 00:47:09;;;;;;;152.52;32.35;;;;;;;4.12;98.90;99638.25;3469549;28;20166;-49
2021/04/18 00:48:51;;;;;;;148.95;34.53;;;;;;;4.12;99.00;99642.53;3472157;28;20053;-59
2021/04/18 00:50:34;;;;;;;126.43;32.45;;;;;;;4.12;99.05;99639.97;3470772;28;20057;-60
2021/04/18 00:52:16;;;;;;;119.90;28.37;;;;;;;4.13;98.90;99640.03;3468291;28;20057;-60
2021/04/18 00:53:57;;;;;;;135.50;31.73;;;;;;;4.14;99.05;99639.22;3472050;28;20053;-60
2021/04/18 00:55:40;;;;;;;111.82;29.38;;;;;;;4.15;99.05;99642.66;3469584;28;20050;-60
2021/04/18 00:57:22;;;;;;;137.32;35.17;;;;;;;4.18;98.97;99653.06;3472875;28;20395;-60
2021/04/18 00:59:03;;;;;;;130.52;31.42;;;;;;;4.19;99.00;99647.09;3467937;28;20050;-60
2021/04/18 01:00:45;;;;;;;122.93;30.45;;;;;;;4.21;98.82;99648.00;3469961;28;20057;-49
2021/04/18 01:02:27;;;;;;;182.65;37.40;;;;;;;4.23;98.97;99644.72;3471522;28;20057;-51
2021/04/18 01:04:09;;;;;;;160.43;35.33;;;;;;;4.25;99.05;99636.16;3469513;28;20048;-51
2021/04/18 01:05:50;;;;;;;122.40;32.38;;;;;;;4.26;99.34;99637.94;3472813;28;20049;-50
2021/04/18 01:07:32;;;;;;;157.43;33.10;;;;;;;4.28;98.99;99638.84;3469456;28;20052;-51
2021/04/18 01:09:14;;;;;;;174.57;34.17;;;;;;;4.29;99.35;99635.50;3472301;28;20049;-60
2021/04/18 01:10:55;;;;;;;153.70;33.00;;;;;;;4.29;99.41;99622.66;3469663;28;20045;-60
2021/04/18 01:12:37;;;;;;;160.98;30.80;;;;;;;4.30;99.35;99612.44;3471265;28;20049;-60
2021/04/18 01:14:18;;;;;;;151.13;30.15;;;;;;;4.32;99.19;99613.38;3461831;28;20050;-57
2021/04/18 01:16:00;;;;;;;142.60;31.35;;;;;;;4.33;99.43;99612.53;3461737;28;20107;-60
2021/04/18 01:17:41;;;;;;;151.77;33.65;;;;;;;4.34;99.12;99614.28;3471509;28;20084;-60
2021/04/18 01:19:24;;;;;;;187.02;34.47;;;;;;;4.35;99.34;99618.63;3469192;28;20131;-60
2021/04/18 01:21:07;;;;;;;173.60;33.83;;;;;;;4.37;99.56;99613.53;3470751;28;20056;-60
2021/04/18 01:22:49;;;;;;;135.15;30.73;;;;;;;4.38;99.65;99607.56;3465515;28;20491;-60
2021/04/18 01:24:31;;;;;;;126.47;31.33;;;;;;;4.40;99.56;99613.66;3468551;28;20053;-60
2021/04/18 01:26:13;;;;;;;124.18;30.73;;;;;;;4.41;99.65;99608.56;3469072;28;20104;-60
2021/04/18 01:27:56;;;;;;;110.93;26.65;;;;;;;4.44;99.51;99612.06;3467110;28;20095;-60
2021/04/18 01:29:37;;;;;;;137.57;29.77;;;;;;;4.47;99.60;99615.63;3470498;28;20053;-60
2021/04/18 01:31:19;;;;;;;103.00;24.13;;;;;;;4.49;99.65;99618.25;3467436;28;20053;-60
2021/04/18 01:33:01;;;;;;;87.78;24.48;;;;;;;4.49;99.57;99606.28;3470295;28;20054;-60
2021/04/18 01:34:45;;;;;;;93.05;22.92;;;;;;;4.51;99.34;99604.66;3467015;28;20049;-51
2021/04/18 01:36:27;;;;;;;109.55;30.35;;;;;;;4.54;99.40;99609.03;3467382;28;20046;-60
2021/04/18 01:38:10;;;;;;;144.48;32.55;;;;;;;4.56;99.50;99610.81;3468662;28;20088;-60
2021/04/18 01:39:51;;;;;;;114.53;29.92;;;;;;;4.57;99.51;99609.16;3466979;28;20076;-49
2021/04/18 01:41:33;;;;;;;152.95;30.65;;;;;;;4.58;99.48;99608.31;3456730;28;20061;-51
2021/04/18 01:43:16;;;;;;;103.03;25.58;;;;;;;4.59;99.54;99604.94;3463102;28;20494;-52
2021/04/18 01:44:57;;;;;;;92.43;25.67;;;;;;;4.59;99.50;99599.78;3470448;28;20057;-60
2021/04/18 01:46:39;;;;;;;103.85;27.63;;;;;;;4.63;99.87;99595.63;3465895;28;20049;-61
2021/04/18 01:48:21;;;;;;;82.07;20.20;;;;;;;4.64;99.82;99593.13;3468038;28;20425;-59
2021/04/18 01:50:04;;;;;;;134.68;27.05;;;;;;;4.64;99.55;99597.41;3467663;28;20058;-58
2021/04/18 01:51:46;;;;;;;92.70;27.20;;;;;;;4.66;99.59;99598.31;3466490;28;20053;-59
2021/04/18 01:53:28;;;;;;;79.53;22.02;;;;;;;4.67;99.46;99595.81;3470033;28;20103;-60
2021/04/18 01:55:10;;;;;;;101.65;28.30;;;;;;;4.68;99.48;99601.81;3466688;28;20045;-60
2021/04/18 01:56:52;;;;;;;81.00;25.05;;;;;;;4.69;99.64;99593.28;3469463;28;20053;-59
2021/04/18 01:58:35;;;;;;;78.95;26.85;;;;;;;4.69;99.53;99595.84;3467209;28;20092;-50
2021/04/18 02:00:17;;;;;;;98.72;28.08;;;;;;;4.69;99.71;99594.16;3467741;28;20058;-50
2021/04/18 02:02:06;;;;;;;79.95;25.95;;;;;;;4.70;99.67;99595.91;3469009;28;20049;-49
2021/04/18 02:03:48;;;;;;;72.70;23.38;;;;;;;4.70;99.85;99595.91;3466540;28;20502;-60
2021/04/18 02:05:32;;;;;;;67.63;23.65;;;;;;;4.70;99.57;99589.91;3469986;28;20057;-60
2021/04/18 02:07:14;;;;;;;65.90;20.45;;;;;;;4.69;99.44;99591.59;3466393;28;20045;-60
2021/04/18 02:08:56;;;;;;;76.83;23.97;;;;;;;4.71;99.50;99591.66;3467780;28;20053;-60
2021/04/18 02:10:37;;;;;;;83.88;25.17;;;;;;;4.72;99.58;99586.53;3467936;28;20302;-60
2021/04/18 02:12:19;;;;;;;94.45;26.63;;;;;;;4.73;99.80;99585.75;3466706;28;20060;-61
2021/04/18 02:14:00;;;;;;;71.65;23.70;;;;;;;4.73;99.67;99584.88;3468132;28;20061;-60
2021/04/18 02:15:41;;;;;;;90.32;26.88;;;;;;;4.72;99.41;99576.28;3466316;28;20054;-60
2021/04/18 02:17:22;;;;;;;60.85;19.25;;;;;;;4.73;99.48;99582.31;3469913;28;20136;-60
2021/04/18 02:19:05;;;;;;;74.05;24.73;;;;;;;4.72;99.45;99580.53;3464928;28;20564;-49
2021/04/18 02:20:47;;;;;;;85.30;25.90;;;;;;;4.72;99.54;99573.69;3468757;28;20057;-51
2021/04/18 02:22:29;;;;;;;78.20;25.77;;;;;;;4.72;99.44;99577.97;3467152;28;20533;-49
2021/04/18 02:24:10;;;;;;;64.18;21.05;;;;;;;4.70;99.62;99572.78;3466616;28;20451;-49
2021/04/18 02:25:52;;;;;;;67.68;23.88;;;;;;;4.72;99.70;99568.56;3469559;28;20553;-59
2021/04/18 02:27:33;;;;;;;78.70;24.70;;;;;;;4.72;99.79;99567.69;3466010;28;20058;-59
2021/04/18 02:29:14;;;;;;;72.18;22.27;;;;;;;4.73;99.63;99566.88;3469918;28;20073;-60
2021/04/18 02:30:56;;;;;;;77.88;25.73;;;;;;;4.72;99.70;99573.69;3466182;28;20484;-59
2021/04/18 02:32:37;;;;;;;79.03;24.88;;;;;;;4.70;99.68;99565.06;3468256;28;20046;-59
2021/04/18 02:34:19;;;;;;;68.50;20.75;;;;;;;4.70;99.56;99572.78;3466620;28;20049;-60
2021/04/18 02:36:00;;;;;;;59.50;19.00;;;;;;;4.69;99.40;99565.91;3466175;28;20453;-59
2021/04/18 02:37:42;;;;;;;74.10;24.35;;;;;;;4.68;99.75;99564.16;3469231;28;20049;-59
2021/04/18 02:39:23;;;;;;;67.85;23.25;;;;;;;4.66;99.44;99560.66;3466221;28;20085;-59
2021/04/18 02:41:05;;;;;;;59.58;20.92;;;;;;;4.65;99.67;99558.03;3469264;28;20419;-59
2021/04/18 02:42:46;;;;;;;53.40;20.35;;;;;;;4.64;99.67;99557.16;3464714;28;20060;-59
2021/04/18 02:44:28;;;;;;;72.45;20.30;;;;;;;4.64;99.46;99553.72;3467963;28;20049;-59
2021/04/18 02:46:09;;;;;;;65.32;20.27;;;;;;;4.61;99.41;99555.34;3466766;28;20064;-60
2021/04/18 02:47:51;;;;;;;53.88;18.25;;;;;;;4.59;99.23;99554.41;3467319;28;20042;-59
2021/04/18 02:49:32;;;;;;;61.47;21.38;;;;;;;4.58;99.34;99560.41;3467092;28;20080;-59
2021/04/18 02:51:14;;;;;;;57.85;18.15;;;;;;;4.58;99.33;99554.34;3466140;28;20145;-60
2021/04/18 02:52:56;;;;;;;61.90;20.92;;;;;;;4.58;99.69;99554.34;3469541;28;20053;-59
2021/04/18 02:54:38;;;;;;;54.65;19.83;;;;;;;4.58;99.46;99555.25;3464497;28;20125;-59
2021/04/18 02:56:19;;;;;;;60.45;19.10;;;;;;;4.57;99.74;99556.06;3469016;28;20053;-59
2021/04/18 02:58:00;;;;;;;55.80;19.83;;;;;;;4.58;99.52;99551.78;3465964;28;20045;-60
2021/04/18 02:59:42;;;;;;;48.20;18.10;;;;;;;4.58;99.55;99559.50;3467443;28;20053;-60
2021/04/18 03:01:23;;;;;;;60.42;19.77;;;;;;;4.58;99.39;99552.69;3466787;28;20057;-59
2021/04/18 03:03:05;;;;;;;62.80;22.00;;;;;;;4.59;99.60;99548.41;3466123;28;20053;-60
2021/04/18 03:04:48;;;;;;;57.38;18.58;;;;;;;4.60;99.62;99547.59;3469365;28;20049;-49
2021/04/18 03:06:29;;;;;;;59.35;19.55;;;;;;;4.59;99.75;99539.00;3462339;28;20077;-48
2021/04/18 03:08:11;;;;;;;39.20;13.68;;;;;;;4.60;99.52;99537.31;3456221;28;20049;-48
2021/04/18 03:09:52;;;;;;;56.00;19.83;;;;;;;4.60;99.68;99527.91;3466254;28;20053;-49
2021/04/18 03:11:35;;;;;;;51.00;19.27;;;;;;;4.61;99.56;99526.22;3466209;28;20053;-50
2021/04/18 03:13:16;;;;;;;60.35;21.70;;;;;;;4.61;99.68;99532.22;3466820;28;20099;-49
2021/04/18 03:14:58;;;;;;;52.90;19.23;;;;;;;4.63;99.44;99534.84;3465613;28;20499;-53
2021/04/18 03:16:39;;;;;;;51.45;18.08;;;;;;;4.64;99.55;99535.75;3469069;28;20045;-49
2021/04/18 03:18:21;;;;;;;62.17;21.05;;;;;;;4.64;99.84;99540.88;3465937;28;20337;-48
2021/04/18 03:20:04;;;;;;;53.40;18.08;;;;;;;4.66;99.92;99544.38;3468732;28;20046;-48
2021/04/18 03:21:45;;;;;;;47.42;14.82;;;;;;;4.66;99.55;99540.09;3466275;28;20597;-60
2021/04/18 03:23:27;;;;;;;47.50;17.67;;;;;;;4.65;99.80;99538.34;3467069;28;20057;-60
2021/04/18 03:25:10;;;;;;;53.08;18.95;;;;;;;4.66;99.71;99537.53;3456463;28;20049;-48
2021/04/18 03:26:51;;;;;;;57.95;20.63;;;;;;;4.66;99.74;99539.22;3458403;28;20123;-50
2021/04/18 03:28:33;;;;;;;46.92;17.40;;;;;;;4.65;99.49;99538.34;3455274;28;20057;-48
2021/04/18 03:30:16;;;;;;;55.70;19.27;;;;;;;4.65;99.81;99532.34;3463189;28;20071;-60
2021/04/18 03:31:57;;;;;;;57.25;19.48;;;;;;;4.66;99.51;99536.66;3468288;28;20053;-60
2021/04/18 03:33:41;;;;;;;46.78;16.10;;;;;;;4.65;99.85;99540.03;3466504;28;20077;-60
2021/04/18 03:35:22;;;;;;;46.67;17.40;;;;;;;4.66;99.90;99540.09;3465751;28;20061;-59
2021/04/18 03:37:04;;;;;;;54.63;17.95;;;;;;;4.65;99.58;99543.47;3468632;28;20089;-60
2021/04/18 03:38:45;;;;;;;50.92;17.95;;;;;;;4.66;99.47;99536.66;3465615;28;20054;-59
2021/04/18 03:40:27;;;;;;;45.85;15.20;;;;;;;4.66;99.67;99541.81;3469010;28;20045;-59
2021/04/18 03:42:09;;;;;;;45.25;15.50;;;;;;;4.64;99.59;99526.34;3465385;28;20422;-59
2021/04/18 03:43:50;;;;;;;38.15;14.35;;;;;;;4.64;99.62;99540.88;3467700;28;20049;-59
2021/04/18 03:45:32;;;;;;;39.72;13.77;;;;;;;4.62;99.57;99535.69;3466074;28;20498;-60
2021/04/18 03:47:13;;;;;;;37.05;12.85;;;;;;;4.63;99.69;99539.97;3465796;28;20058;-60
2021/04/18 03:48:55;;;;;;;33.17;12.90;;;;;;;4.63;99.67;99534.84;3468536;28;20461;-60
2021/04/18 03:50:56;;;;;;;33.08;11.20;;;;;;;4.65;99.60;99529.75;3465331;28;20421;-60
2021/04/18 03:52:41;;;;;;;38.15;13.15;;;;;;;4.64;99.41;99540.88;3468246;28;20493;-60
2021/04/18 03:54:23;;;;;;;28.38;9.60;;;;;;;4.65;99.65;99543.47;3465497;28;20128;-60
2021/04/18 03:56:06;;;;;;;38.00;14.40;;;;;;;4.68;99.36;99535.88;3464343;28;20133;-59
2021/04/18 03:57:47;;;;;;;28.33;10.43;;;;;;;4.69;99.59;99537.66;3467544;28;20403;-60
2021/04/18 03:59:29;;;;;;;49.65;16.67;;;;;;;4.71;99.67;99535.13;3465337;28;20084;-59
2021/04/18 04:01:11;;;;;;;46.60;15.80;;;;;;;4.74;99.59;99540.34;3468846;28;20063;-48
2021/04/18 04:02:53;;;;;;;32.30;11.88;;;;;;;4.72;99.39;99542.88;3464399;28;20045;-58
2021/04/18 04:04:34;;;;;;;42.85;14.88;;;;;;;4.72;99.50;99542.00;3468150;28;20049;-59
2021/04/18 04:06:16;;;;;;;37.75;13.68;;;;;;;4.72;99.28;99539.44;3465949;28;20148;-59
2021/04/18 04:07:58;;;;;;;37.83;13.43;;;;;;;4.73;99.58;99541.19;3464176;28;20104;-59
2021/04/18 04:09:40;;;;;;;33.67;13.18;;;;;;;4.74;99.52;99545.50;3468319;28;20076;-59
2021/04/18 04:11:21;;;;;;;33.50;12.60;;;;;;;4.76;99.50;99541.31;3465082;28;20426;-58
2021/04/18 04:13:02;;;;;;;31.52;12.93;;;;;;;4.74;99.50;99536.13;3467348;28;20045;-59
2021/04/18 04:14:44;;;;;;;30.77;11.93;;;;;;;4.76;99.47;99533.59;3465235;28;20160;-59
2021/04/18 04:16:25;;;;;;;31.23;12.50;;;;;;;4.78;99.27;99532.81;3468469;28;20060;-59
2021/04/18 04:18:07;;;;;;;33.92;13.07;;;;;;;4.82;99.23;99535.50;3465543;28;20072;-59
2021/04/18 04:19:49;;;;;;;35.08;13.10;;;;;;;4.84;99.28;99534.72;3465437;28;20042;-59
2021/04/18 04:21:30;;;;;;;32.33;11.25;;;;;;;4.86;99.25;99535.63;3467356;28;20053;-59
2021/04/18 04:23:11;;;;;;;34.10;13.32;;;;;;;4.89;99.18;99537.47;3465063;28;20044;-59
2021/04/18 04:24:53;;;;;;;35.75;14.10;;;;;;;4.90;99.41;99537.50;3468371;28;20084;-59
2021/04/18 04:26:35;;;;;;;32.08;11.60;;;;;;;4.93;99.50;99536.72;3464807;28;20049;-59
2021/04/18 04:28:16;;;;;;;28.33;11.20;;;;;;;4.92;99.15;99535.00;3467787;28;20526;-59
2021/04/18 04:29:58;;;;;;;31.63;12.93;;;;;;;4.90;98.96;99534.94;3465431;28;20542;-59
2021/04/18 04:31:39;;;;;;;33.08;13.38;;;;;;;4.92;99.22;99543.56;3465386;28;20048;-59
2021/04/18 04:33:21;;;;;;;23.63;9.88;;;;;;;4.94;99.21;99538.50;3468186;28;20049;-59
2021/04/18 04:35:03;;;;;;;28.13;11.10;;;;;;;4.93;99.19;99529.88;3464801;28;20053;-60
2021/04/18 04:36:44;;;;;;;33.80;12.50;;;;;;;4.96;99.39;99526.56;3468305;28;20049;-60
2021/04/18 04:38:26;;;;;;;27.20;12.25;;;;;;;4.98;99.31;99532.63;3465519;28;20128;-60
2021/04/18 04:40:08;;;;;;;33.15;11.52;;;;;;;5.01;99.00;99532.72;3467856;28;20046;-60
2021/04/18 04:41:50;;;;;;;29.75;10.95;;;;;;;5.02;99.03;99529.31;3465193;28;20156;-60
2021/04/18 04:43:32;;;;;;;33.92;11.82;;;;;;;5.06;99.23;99536.34;3465305;28;20042;-60
2021/04/18 04:45:15;;;;;;;28.58;10.30;;;;;;;5.08;99.12;99528.69;3466677;28;20608;-59
2021/04/18 04:46:57;;;;;;;38.40;14.55;;;;;;;5.10;99.10;99529.59;3464876;28;20076;-59
2021/04/18 04:48:39;;;;;;;38.65;13.68;;;;;;;5.12;99.11;99533.09;3468371;28;20397;-59
2021/04/18 04:50:21;;;;;;;35.63;13.13;;;;;;;5.13;98.96;99530.56;3464599;28;20576;-59
2021/04/18 04:52:03;;;;;;;33.55;12.52;;;;;;;5.13;98.90;99528.00;3467792;28;20049;-59
2021/04/18 04:53:44;;;;;;;29.38;12.27;;;;;;;5.13;98.66;99534.81;3465792;28;20053;-59
2021/04/18 04:55:26;;;;;;;30.83;12.32;;;;;;;5.14;98.86;99529.72;3465109;28;20092;-59
2021/04/18 04:57:08;;;;;;;28.23;12.30;;;;;;;5.17;98.78;99528.97;3469570;28;20414;-59
2021/04/18 04:58:53;;;;;;;32.38;14.88;;;;;;;5.20;99.04;99526.50;3465161;28;20045;-59
2021/04/18 05:00:34;;;;;;;31.42;12.82;;;;;;;5.23;98.76;99526.59;3456684;28;20053;-60
2021/04/18 05:02:16;;;;;;;34.88;13.95;;;;;;;5.25;98.68;99521.50;3465808;28;20057;-59
2021/04/18 05:03:58;;;;;;;36.08;14.00;;;;;;;5.30;98.84;99525.97;3469897;28;20050;-59
2021/04/18 05:05:39;;;;;;;33.65;13.65;;;;;;;5.33;98.86;99520.91;3468315;28;20053;-59
2021/04/18 05:07:20;;;;;;;28.50;10.73;;;;;;;5.37;98.71;99514.19;3468706;28;20045;-48
2021/04/18 05:09:02;;;;;;;37.17;14.73;;;;;;;5.40;98.68;99511.72;3469327;28;20422;-47
2021/04/18 05:10:44;;;;;;;30.77;12.48;;;;;;;5.42;98.68;99509.19;3467165;28;20825;-59
2021/04/18 05:12:25;;;;;;;35.35;14.98;;;;;;;5.44;98.56;99507.53;3470999;28;20077;-60
2021/04/18 05:14:07;;;;;;;30.73;12.88;;;;;;;5.48;98.37;99505.13;3466696;28;20041;-48
2021/04/18 05:15:48;;;;;;;29.88;13.70;;;;;;;5.50;98.25;99500.00;3469709;28;20118;-48
2021/04/18 05:17:30;;;;;;;27.75;11.85;;;;;;;5.51;98.19;99496.59;3467634;28;20140;-48
2021/04/18 05:19:11;;;;;;;38.75;14.35;;;;;;;5.51;98.05;99491.47;3467336;28;20049;-48
2021/04/18 05:20:52;;;;;;;31.17;13.90;;;;;;;5.55;98.03;99493.28;3469951;28;20525;-48
2021/04/18 05:22:34;;;;;;;31.98;13.68;;;;;;;5.59;98.15;99490.00;3466784;28;20057;-48
2021/04/18 05:24:16;;;;;;;35.38;15.05;;;;;;;5.60;98.14;99489.16;3470452;28;20064;-48
2021/04/18 05:25:58;;;;;;;28.35;12.68;;;;;;;5.63;97.85;99489.25;3466997;28;20056;-48
2021/04/18 05:27:39;;;;;;;31.35;13.80;;;;;;;5.65;97.95;99486.75;3469697;28;20045;-47
2021/04/18 05:29:22;;;;;;;30.70;13.75;;;;;;;5.69;97.75;99491.16;3467617;28;20093;-48
2021/04/18 05:31:04;;;;;;;28.88;12.75;;;;;;;5.69;97.70;99488.56;3468061;28;20181;-48
2021/04/18 05:32:45;;;;;;;29.63;12.88;;;;;;;5.69;97.42;99483.41;3469067;28;20049;-48
2021/04/18 05:34:27;;;;;;;28.50;11.70;;;;;;;5.72;97.56;99483.53;3466939;28;20042;-59
2021/04/18 05:36:09;;;;;;;29.17;12.88;;;;;;;5.74;97.30;99474.16;3470120;28;20050;-58
2021/04/18 05:37:50;;;;;;;28.77;12.50;;;;;;;5.79;97.54;99480.31;3466889;28;20077;-58
2021/04/18 05:39:31;;;;;;;27.77;13.52;;;;;;;5.81;97.08;99475.22;3469746;28;20069;-59
2021/04/18 05:41:13;;;;;;;28.20;11.93;;;;;;;5.85;97.04;99479.59;3467562;28;20057;-58
2021/04/18 05:42:55;;;;;;;23.42;10.75;;;;;;;5.90;97.02;99480.63;3466616;28;20050;-59
2021/04/18 05:44:37;;;;;;;21.27;10.00;;;;;;;5.93;96.77;99481.56;3468712;28;20430;-59
2021/04/18 05:46:18;;;;;;;27.88;12.45;;;;;;;5.94;96.52;99480.75;3466522;28;20060;-59
2021/04/18 05:48:00;;;;;;;26.13;12.20;;;;;;;5.96;96.70;99483.38;3469944;28;20053;-58
2021/04/18 05:49:41;;;;;;;24.40;11.95;;;;;;;5.97;96.39;99487.69;3466857;28;20129;-48
2021/04/18 05:51:23;;;;;;;23.67;12.52;;;;;;;5.99;96.20;99483.44;3469476;28;20498;-47
2021/04/18 05:53:07;;;;;;;21.17;11.00;;;;;;;6.03;96.28;99487.88;3467907;28;20072;-47
2021/04/18 05:54:50;;;;;;;26.85;11.82;;;;;;;6.07;96.17;99496.56;3467970;28;20503;-59
2021/04/18 05:56:32;;;;;;;28.00;13.68;;;;;;;6.09;96.17;99488.03;3468598;28;20099;-59
2021/04/18 05:58:16;;;;;;;23.80;11.82;;;;;;;6.13;96.04;99489.00;3466589;28;20480;-58
2021/04/18 05:59:57;;;;;;;26.33;12.88;;;;;;;6.17;95.88;99484.81;3469633;28;20056;-59
2021/04/18 06:01:39;;;;;;;23.88;12.25;;;;;;;6.19;95.58;99485.72;3466469;28;20499;-59
2021/04/18 06:03:21;;;;;;;25.90;12.00;;;;;;;6.24;95.28;99487.63;3468579;28;20053;-59
2021/04/18 06:05:04;;;;;;;17.80;9.65;;;;;;;6.27;95.01;99479.09;3468468;28;20053;-58
2021/04/18 06:06:49;;;;;;;22.17;10.77;;;;;;;6.27;95.01;99474.81;3466263;28;20047;-58
2021/04/18 06:08:30;;;;;;;25.67;12.50;;;;;;;6.30;94.69;99477.47;3469626;28;20580;-58
2021/04/18 06:10:13;;;;;;;20.13;10.30;;;;;;;6.32;94.41;99473.22;3465043;28;20104;-58
2021/04/18 06:11:55;;;;;;;18.92;10.20;;;;;;;6.36;94.36;99487.06;3469761;28;20065;-59
2021/04/18 06:13:36;;;;;;;24.73;13.00;;;;;;;6.39;94.53;99488.88;3464846;28;20079;-59
2021/04/18 06:15:19;;;;;;;22.05;12.57;;;;;;;6.41;94.21;99489.78;3467780;28;20438;-59
2021/04/18 06:17:00;;;;;;;26.90;13.18;;;;;;;6.43;94.11;99485.53;3468099;28;20049;-58
2021/04/18 06:18:42;;;;;;;23.40;13.13;;;;;;;6.45;94.24;99481.28;3466457;28;20139;-59
2021/04/18 06:20:24;;;;;;;23.45;12.20;;;;;;;6.47;94.26;99488.25;3469576;28;20049;-58
2021/04/18 06:22:05;;;;;;;19.75;11.52;;;;;;;6.53;94.17;99486.66;3466302;28;20048;-59
2021/04/18 06:23:46;;;;;;;21.67;11.57;;;;;;;6.53;94.15;99479.81;3469631;28;20077;-58
2021/04/18 06:25:27;;;;;;;26.25;13.30;;;;;;;6.57;94.19;99481.63;3466271;28;20134;-58
2021/04/18 06:27:10;;;;;;;23.85;14.18;;;;;;;6.60;93.90;99476.56;3467782;28;20079;-48
2021/04/18 06:28:51;;;;;;;22.90;12.70;;;;;;;6.65;93.93;99482.72;3468087;28;20435;-49
2021/04/18 06:30:33;;;;;;;25.80;13.95;;;;;;;6.68;93.93;99469.91;3466507;28;20127;-58
2021/04/18 06:32:14;;;;;;;25.02;12.88;;;;;;;6.73;93.96;99477.75;3469487;28;20057;-58
2021/04/18 06:34:01;;;;;;;29.42;13.90;;;;;;;6.79;93.46;99477.91;3466245;28;20423;-48
2021/04/18 06:35:43;;;;;;;22.35;12.55;;;;;;;6.85;93.47;99464.31;3469760;28;20061;-47
2021/04/18 06:37:24;;;;;;;23.17;11.68;;;;;;;6.92;93.08;99465.34;3465225;28;20050;-49
2021/04/18 06:39:06;;;;;;;26.83;13.95;;;;;;;7.02;93.44;99470.78;3467433;28;20049;-48
2021/04/18 06:40:51;;;;;;;23.33;11.45;;;;;;;7.12;92.98;99464.13;3468020;28;20510;-58
2021/04/18 06:42:36;;;;;;;21.75;12.00;;;;;;;7.22;92.59;99465.22;3466244;28;20049;-47
2021/04/18 06:44:18;;;;;;;21.33;10.60;;;;;;;7.31;91.92;99467.16;3469468;28;20469;-47
2021/04/18 06:45:59;;;;;;;19.98;10.57;;;;;;;7.40;92.27;99478.56;3464626;28;20053;-48
2021/04/18 06:47:48;;;;;;;19.90;10.95;;;;;;;7.44;91.31;99461.44;3468648;28;20045;-48
2021/04/18 06:49:29;;;;;;;20.30;10.80;;;;;;;7.47;91.06;99465.81;3467386;28;20053;-49
2021/04/18 06:51:11;;;;;;;24.17;12.27;;;;;;;7.53;91.47;99463.34;3466081;28;20531;-49
2021/04/18 06:52:52;;;;;;;17.40;9.63;;;;;;;7.60;90.93;99472.97;3468966;28;20049;-47
2021/04/18 06:54:34;;;;;;;20.55;10.82;;;;;;;7.64;90.42;99465.34;3464484;28;20576;-47
2021/04/18 06:56:16;;;;;;;21.33;10.93;;;;;;;7.68;90.53;99468.00;3469484;28;20057;-49
2021/04/18 06:57:58;;;;;;;23.10;11.32;;;;;;;7.64;89.22;99472.22;3465846;28;20052;-49
2021/04/18 06:59:40;;;;;;;16.58;9.52;;;;;;;7.64;90.25;99472.22;3468733;28;20049;-49
2021/04/18 07:01:21;;;;;;;14.82;8.88;;;;;;;7.58;89.28;99456.59;3467755;28;20053;-58
2021/04/18 07:03:10;;;;;;;16.20;9.00;;;;;;;7.52;89.17;99453.88;3466954;28;20406;-58
2021/04/18 07:04:57;;;;;;;13.63;8.32;;;;;;;7.47;88.97;99456.34;3468539;28;20441;-58
2021/04/18 07:06:40;;;;;;;21.67;9.55;;;;;;;7.46;89.49;99457.19;3465523;28;20486;-57
2021/04/18 07:08:25;;;;;;;16.67;9.02;;;;;;;7.45;89.58;99456.31;3469359;28;20396;-49
2021/04/18 07:10:08;;;;;;;20.70;9.85;;;;;;;7.45;89.54;99464.03;3465515;28;20395;-47
2021/04/18 07:11:51;;;;;;;18.98;9.50;;;;;;;7.43;89.39;99460.56;3465687;28;20507;-48
2021/04/18 07:13:33;;;;;;;15.82;9.88;;;;;;;7.44;89.33;99459.75;3465937;28;20049;-59
2021/04/18 07:15:34;;;;;;;16.00;9.65;;;;;;;7.44;89.26;99458.84;3466195;28;20140;-58
2021/04/18 07:17:15;;;;;;;14.60;8.02;;;;;;;7.46;89.44;99464.94;3469115;28;20049;-59
2021/04/18 07:18:57;;;;;;;15.02;8.30;;;;;;;7.46;89.49;99454.63;3465384;28;20045;-59
2021/04/18 07:20:51;;;;;;;18.63;11.32;;;;;;;7.45;89.24;99461.47;3467139;28;20052;-59
2021/04/18 07:22:32;;;;;;;14.50;8.77;;;;;;;7.45;88.91;99458.88;3468207;28;20501;-59
2021/04/18 07:24:14;;;;;;;15.85;9.43;;;;;;;7.46;89.07;99454.63;3465965;28;20049;-52
2021/04/18 07:25:57;;;;;;;16.50;9.43;;;;;;;7.48;88.90;99457.22;3469065;28;20045;-49
2021/04/18 07:27:45;;;;;;;17.25;10.23;;;;;;;7.49;89.24;99457.25;3464294;28;20095;-48
2021/04/18 07:29:29;;;;;;;17.50;9.93;;;;;;;7.53;89.40;99458.19;3466969;28;20433;-49
2021/04/18 07:31:11;;;;;;;16.00;9.50;;;;;;;7.55;89.18;99459.13;3467533;28;20085;-49
2021/04/18 07:33:03;;;;;;;20.25;11.40;;;;;;;7.55;88.93;99461.69;3466045;28;20088;-49
2021/04/18 07:34:45;;;;;;;18.17;9.93;;;;;;;7.57;88.84;99457.44;3455509;28;20050;-47
2021/04/18 07:36:26;;;;;;;18.02;10.27;;;;;;;7.55;88.74;99452.22;3463065;28;20510;-50
2021/04/18 07:38:18;;;;;;;15.73;9.38;;;;;;;7.56;88.97;99455.69;3468437;28;20514;-47
2021/04/18 07:40:03;;;;;;;17.50;9.00;;;;;;;7.55;88.76;99456.53;3458927;28;20054;-49
2021/04/18 07:41:47;;;;;;;17.15;9.27;;;;;;;7.54;88.57;99444.44;3458645;28;20081;-47
2021/04/18 07:43:29;;;;;;;18.40;10.52;;;;;;;7.53;88.93;99447.84;3468922;28;20119;-48
2021/04/18 07:45:13;;;;;;;19.23;10.77;;;;;;;7.54;89.15;99444.44;3465615;28;20071;-46
2021/04/18 07:46:55;;;;;;;15.80;9.02;;;;;;;7.57;89.26;99445.41;3468915;28;20057;-58
2021/04/18 07:48:38;;;;;;;18.77;9.73;;;;;;;7.61;89.04;99439.44;3464564;28;20053;-58
2021/04/18 07:50:21;;;;;;;18.20;10.77;;;;;;;7.64;89.41;99441.25;3467951;28;20076;-58
2021/04/18 07:52:05;;;;;;;17.17;10.27;;;;;;;7.65;89.26;99440.38;3467606;28;20510;-58
2021/04/18 07:53:46;;;;;;;17.73;10.45;;;;;;;7.66;89.24;99434.41;3465224;28;20091;-58
2021/04/18 07:55:30;;;;;;;16.90;9.88;;;;;;;7.68;88.74;99435.28;3468668;28;20056;-58